sensor_id;sensor_type;location;lat;lon;timestamp;temperature;humidity
22491;DHT22;11412;50.802;4.350;2022-09-17T00:02:22;11.50;99.90
22491;DHT22;11412;50.802;4.350;2022-09-17T00:04:50;11.70;99.90
22491;DHT22;11412;50.802;4.350;2022-09-17T00:07:16;11.70;99.90
22491;DHT22;11412;50.802;4.350;2022-09-17T00:09:42;11.50;99.90
22491;DHT22;11412;50.802;4.350;2022-09-17T00:12:09;11.50;99.90
22491;DHT22;11412;50.802;4.350;2022-09-17T00:14:34;11.50;99.90
22491;DHT22;11412;50.802;4.350;2022-09-17T00:17:00;11.60;99.90
22491;DHT22;11412;50.802;4.350;2022-09-17T00:19:26;11.50;99.90
22491;DHT22;11412;50.802;4.350;2022-09-17T00:21:52;11.60;99.90
22491;DHT22;11412;50.802;4.350;2022-09-17T00:24:18;11.50;99.90
22491;DHT22;11412;50.802;4.350;2022-09-17T00:26:45;11.40;99.90
22491;DHT22;11412;50.802;4.350;2022-09-17T00:29:11;11.50;99.90
22491;DHT22;11412;50.802;4.350;2022-09-17T00:31:37;11.70;99.90
22491;DHT22;11412;50.802;4.350;2022-09-17T00:34:04;11.70;99.90
22491;DHT22;11412;50.802;4.350;2022-09-17T00:36:32;11.70;99.90
22491;DHT22;11412;50.802;4.350;2022-09-17T00:38:59;11.80;99.90
22491;DHT22;11412;50.802;4.350;2022-09-17T00:41:27;11.80;99.90
22491;DHT22;11412;50.802;4.350;2022-09-17T00:43:55;11.70;99.90
22491;DHT22;11412;50.802;4.350;2022-09-17T00:46:41;11.50;99.90
22491;DHT22;11412;50.802;4.350;2022-09-17T00:51:42;11.50;99.90
22491;DHT22;11412;50.802;4.350;2022-09-17T00:54:09;11.50;99.90
22491;DHT22;11412;50.802;4.350;2022-09-17T00:56:38;11.50;99.90
22491;DHT22;11412;50.802;4.350;2022-09-17T00:59:06;11.60;99.90
22491;DHT22;11412;50.802;4.350;2022-09-17T01:01:33;11.60;99.90
22491;DHT22;11412;50.802;4.350;2022-09-17T01:03:58;11.40;99.90
22491;DHT22;11412;50.802;4.350;2022-09-17T01:14:34;11.30;99.90
22491;DHT22;11412;50.802;4.350;2022-09-17T01:31:28;11.30;99.90
22491;DHT22;11412;50.802;4.350;2022-09-17T01:34:10;11.30;99.90
22491;DHT22;11412;50.802;4.350;2022-09-17T01:44:28;11.50;99.90
22491;DHT22;11412;50.802;4.350;2022-09-17T01:49:31;11.60;99.90
22491;DHT22;11412;50.802;4.350;2022-09-17T01:52:00;11.60;99.90
22491;DHT22;11412;50.802;4.350;2022-09-17T01:54:43;11.60;99.90
22491;DHT22;11412;50.802;4.350;2022-09-17T01:57:26;11.60;99.90
22491;DHT22;11412;50.802;4.350;2022-09-17T02:02:29;11.60;99.90
22491;DHT22;11412;50.802;4.350;2022-09-17T02:07:24;11.60;99.90
22491;DHT22;11412;50.802;4.350;2022-09-17T02:10:16;11.60;99.90
22491;DHT22;11412;50.802;4.350;2022-09-17T02:12:45;11.70;99.90
22491;DHT22;11412;50.802;4.350;2022-09-17T02:15:19;11.70;99.90
22491;DHT22;11412;50.802;4.350;2022-09-17T02:17:53;11.60;99.90
22491;DHT22;11412;50.802;4.350;2022-09-17T02:20:27;11.60;99.90
22491;DHT22;11412;50.802;4.350;2022-09-17T02:22:57;11.70;99.90
22491;DHT22;11412;50.802;4.350;2022-09-17T02:25:47;11.70;99.90
22491;DHT22;11412;50.802;4.350;2022-09-17T02:28:16;11.60;99.90
22491;DHT22;11412;50.802;4.350;2022-09-17T02:30:44;11.60;99.90
22491;DHT22;11412;50.802;4.350;2022-09-17T02:33:12;11.70;99.90
22491;DHT22;11412;50.802;4.350;2022-09-17T02:35:39;11.80;99.90
22491;DHT22;11412;50.802;4.350;2022-09-17T02:38:05;11.70;99.90
22491;DHT22;11412;50.802;4.350;2022-09-17T02:40:35;11.60;99.90
22491;DHT22;11412;50.802;4.350;2022-09-17T02:44:01;11.80;99.90
22491;DHT22;11412;50.802;4.350;2022-09-17T02:49:14;11.60;99.90
22491;DHT22;11412;50.802;4.350;2022-09-17T02:55:14;11.50;99.90
22491;DHT22;11412;50.802;4.350;2022-09-17T02:57:53;11.50;99.90
22491;DHT22;11412;50.802;4.350;2022-09-17T03:00:23;11.50;99.90
22491;DHT22;11412;50.802;4.350;2022-09-17T03:02:58;11.40;99.90
22491;DHT22;11412;50.802;4.350;2022-09-17T03:05:25;11.40;99.90
22491;DHT22;11412;50.802;4.350;2022-09-17T03:07:54;11.30;99.90
22491;DHT22;11412;50.802;4.350;2022-09-17T03:10:21;11.30;99.90
22491;DHT22;11412;50.802;4.350;2022-09-17T03:12:47;11.30;99.90
22491;DHT22;11412;50.802;4.350;2022-09-17T03:15:13;11.30;99.90
22491;DHT22;11412;50.802;4.350;2022-09-17T03:17:39;11.30;99.90
22491;DHT22;11412;50.802;4.350;2022-09-17T03:20:05;11.40;99.90
22491;DHT22;11412;50.802;4.350;2022-09-17T03:22:31;11.30;99.90
22491;DHT22;11412;50.802;4.350;2022-09-17T03:24:57;11.20;99.90
22491;DHT22;11412;50.802;4.350;2022-09-17T03:27:22;11.10;99.90
22491;DHT22;11412;50.802;4.350;2022-09-17T03:29:48;11.00;99.90
22491;DHT22;11412;50.802;4.350;2022-09-17T03:32:14;10.90;99.90
22491;DHT22;11412;50.802;4.350;2022-09-17T03:34:39;11.00;99.90
22491;DHT22;11412;50.802;4.350;2022-09-17T03:37:05;10.90;99.90
22491;DHT22;11412;50.802;4.350;2022-09-17T03:39:30;10.80;99.90
22491;DHT22;11412;50.802;4.350;2022-09-17T03:41:56;10.90;99.90
22491;DHT22;11412;50.802;4.350;2022-09-17T03:44:22;11.10;99.90
22491;DHT22;11412;50.802;4.350;2022-09-17T03:46:48;10.90;99.90
22491;DHT22;11412;50.802;4.350;2022-09-17T03:49:14;10.80;99.90
22491;DHT22;11412;50.802;4.350;2022-09-17T03:51:39;10.80;99.90
22491;DHT22;11412;50.802;4.350;2022-09-17T03:54:05;10.90;99.90
22491;DHT22;11412;50.802;4.350;2022-09-17T03:56:31;10.80;99.90
22491;DHT22;11412;50.802;4.350;2022-09-17T03:59:00;10.70;99.90
22491;DHT22;11412;50.802;4.350;2022-09-17T04:01:27;10.70;99.90
22491;DHT22;11412;50.802;4.350;2022-09-17T04:03:53;10.60;99.90
22491;DHT22;11412;50.802;4.350;2022-09-17T04:06:19;10.70;99.90
22491;DHT22;11412;50.802;4.350;2022-09-17T04:08:44;10.60;99.90
22491;DHT22;11412;50.802;4.350;2022-09-17T04:11:10;10.70;99.90
22491;DHT22;11412;50.802;4.350;2022-09-17T04:13:36;10.70;99.90
22491;DHT22;11412;50.802;4.350;2022-09-17T04:16:02;10.80;99.90
22491;DHT22;11412;50.802;4.350;2022-09-17T04:18:28;10.80;99.90
22491;DHT22;11412;50.802;4.350;2022-09-17T04:20:54;10.80;99.90
22491;DHT22;11412;50.802;4.350;2022-09-17T04:23:20;10.70;99.90
22491;DHT22;11412;50.802;4.350;2022-09-17T04:25:45;10.80;99.90
22491;DHT22;11412;50.802;4.350;2022-09-17T04:28:11;10.80;99.90
22491;DHT22;11412;50.802;4.350;2022-09-17T04:30:37;10.90;99.90
22491;DHT22;11412;50.802;4.350;2022-09-17T04:33:03;10.90;99.90
22491;DHT22;11412;50.802;4.350;2022-09-17T04:35:29;10.80;99.90
22491;DHT22;11412;50.802;4.350;2022-09-17T04:37:58;10.70;99.90
22491;DHT22;11412;50.802;4.350;2022-09-17T04:40:25;10.70;99.90
22491;DHT22;11412;50.802;4.350;2022-09-17T04:42:55;10.80;99.90
22491;DHT22;11412;50.802;4.350;2022-09-17T04:45:21;10.70;99.90
22491;DHT22;11412;50.802;4.350;2022-09-17T04:47:47;10.60;99.90
22491;DHT22;11412;50.802;4.350;2022-09-17T04:50:16;10.60;99.90
22491;DHT22;11412;50.802;4.350;2022-09-17T04:52:43;10.60;99.90
22491;DHT22;11412;50.802;4.350;2022-09-17T04:55:09;10.70;99.90
22491;DHT22;11412;50.802;4.350;2022-09-17T04:57:35;10.80;99.90
22491;DHT22;11412;50.802;4.350;2022-09-17T05:00:01;10.80;99.90
22491;DHT22;11412;50.802;4.350;2022-09-17T05:02:27;10.90;99.90
22491;DHT22;11412;50.802;4.350;2022-09-17T05:04:52;10.80;99.90
22491;DHT22;11412;50.802;4.350;2022-09-17T05:07:18;10.80;99.90
22491;DHT22;11412;50.802;4.350;2022-09-17T05:09:44;10.70;99.90
22491;DHT22;11412;50.802;4.350;2022-09-17T05:12:09;10.70;99.90
22491;DHT22;11412;50.802;4.350;2022-09-17T05:14:35;10.70;99.90
22491;DHT22;11412;50.802;4.350;2022-09-17T05:17:00;10.70;99.90
22491;DHT22;11412;50.802;4.350;2022-09-17T05:19:26;10.60;99.90
22491;DHT22;11412;50.802;4.350;2022-09-17T05:21:52;10.60;99.90
22491;DHT22;11412;50.802;4.350;2022-09-17T05:24:17;10.60;99.90
22491;DHT22;11412;50.802;4.350;2022-09-17T05:26:43;10.50;99.90
22491;DHT22;11412;50.802;4.350;2022-09-17T05:29:08;10.50;99.90
22491;DHT22;11412;50.802;4.350;2022-09-17T05:31:34;10.50;99.90
22491;DHT22;11412;50.802;4.350;2022-09-17T05:34:00;10.40;99.90
22491;DHT22;11412;50.802;4.350;2022-09-17T05:36:25;10.40;99.90
22491;DHT22;11412;50.802;4.350;2022-09-17T05:38:51;10.40;99.90
22491;DHT22;11412;50.802;4.350;2022-09-17T05:41:17;10.50;99.90
22491;DHT22;11412;50.802;4.350;2022-09-17T05:43:42;10.50;99.90
22491;DHT22;11412;50.802;4.350;2022-09-17T05:46:08;10.50;99.90
22491;DHT22;11412;50.802;4.350;2022-09-17T05:48:35;10.70;99.90
22491;DHT22;11412;50.802;4.350;2022-09-17T05:51:01;10.70;99.90
22491;DHT22;11412;50.802;4.350;2022-09-17T05:53:27;10.60;99.90
22491;DHT22;11412;50.802;4.350;2022-09-17T05:55:59;10.80;99.90
22491;DHT22;11412;50.802;4.350;2022-09-17T05:58:25;10.90;99.90
22491;DHT22;11412;50.802;4.350;2022-09-17T06:00:51;10.90;99.90
22491;DHT22;11412;50.802;4.350;2022-09-17T06:03:18;11.00;99.90
22491;DHT22;11412;50.802;4.350;2022-09-17T06:05:53;11.00;99.90
22491;DHT22;11412;50.802;4.350;2022-09-17T06:08:19;11.00;99.90
22491;DHT22;11412;50.802;4.350;2022-09-17T06:10:45;11.10;99.90
22491;DHT22;11412;50.802;4.350;2022-09-17T06:13:11;11.10;99.90
22491;DHT22;11412;50.802;4.350;2022-09-17T06:15:36;11.00;99.90
22491;DHT22;11412;50.802;4.350;2022-09-17T06:18:02;11.00;99.90
22491;DHT22;11412;50.802;4.350;2022-09-17T06:20:27;11.10;99.90
22491;DHT22;11412;50.802;4.350;2022-09-17T06:22:57;11.20;99.90
22491;DHT22;11412;50.802;4.350;2022-09-17T06:25:24;11.20;99.90
22491;DHT22;11412;50.802;4.350;2022-09-17T06:27:50;11.20;99.90
22491;DHT22;11412;50.802;4.350;2022-09-17T06:30:15;11.30;99.90
22491;DHT22;11412;50.802;4.350;2022-09-17T06:32:41;11.40;99.90
22491;DHT22;11412;50.802;4.350;2022-09-17T06:35:07;11.40;99.90
22491;DHT22;11412;50.802;4.350;2022-09-17T06:37:33;11.60;99.90
22491;DHT22;11412;50.802;4.350;2022-09-17T06:40:00;11.60;99.90
22491;DHT22;11412;50.802;4.350;2022-09-17T06:42:26;11.60;99.90
22491;DHT22;11412;50.802;4.350;2022-09-17T06:44:53;11.70;99.90
22491;DHT22;11412;50.802;4.350;2022-09-17T06:47:18;11.80;99.90
22491;DHT22;11412;50.802;4.350;2022-09-17T06:49:45;11.60;99.90
22491;DHT22;11412;50.802;4.350;2022-09-17T06:52:10;11.60;99.90
22491;DHT22;11412;50.802;4.350;2022-09-17T06:54:36;11.60;99.90
22491;DHT22;11412;50.802;4.350;2022-09-17T06:57:02;11.80;99.90
22491;DHT22;11412;50.802;4.350;2022-09-17T06:59:27;11.90;99.90
22491;DHT22;11412;50.802;4.350;2022-09-17T07:01:53;12.10;99.90
22491;DHT22;11412;50.802;4.350;2022-09-17T07:04:19;12.10;99.90
22491;DHT22;11412;50.802;4.350;2022-09-17T07:06:45;12.00;99.90
22491;DHT22;11412;50.802;4.350;2022-09-17T07:09:11;11.80;99.90
22491;DHT22;11412;50.802;4.350;2022-09-17T07:11:40;11.80;99.90
22491;DHT22;11412;50.802;4.350;2022-09-17T07:14:06;12.00;99.90
22491;DHT22;11412;50.802;4.350;2022-09-17T07:16:32;12.10;99.90
22491;DHT22;11412;50.802;4.350;2022-09-17T07:19:00;12.20;99.90
22491;DHT22;11412;50.802;4.350;2022-09-17T07:21:25;12.10;99.90
22491;DHT22;11412;50.802;4.350;2022-09-17T07:23:51;12.10;99.90
22491;DHT22;11412;50.802;4.350;2022-09-17T07:26:17;12.20;99.90
22491;DHT22;11412;50.802;4.350;2022-09-17T07:28:43;12.30;99.90
22491;DHT22;11412;50.802;4.350;2022-09-17T07:31:09;12.20;99.90
22491;DHT22;11412;50.802;4.350;2022-09-17T07:33:35;12.10;99.90
22491;DHT22;11412;50.802;4.350;2022-09-17T07:36:04;12.10;99.90
22491;DHT22;11412;50.802;4.350;2022-09-17T07:38:30;12.10;99.90
22491;DHT22;11412;50.802;4.350;2022-09-17T07:40:58;12.20;99.90
22491;DHT22;11412;50.802;4.350;2022-09-17T07:43:28;12.10;99.90
22491;DHT22;11412;50.802;4.350;2022-09-17T07:45:56;12.00;99.90
22491;DHT22;11412;50.802;4.350;2022-09-17T07:48:22;12.00;99.90
22491;DHT22;11412;50.802;4.350;2022-09-17T07:50:48;12.20;99.90
22491;DHT22;11412;50.802;4.350;2022-09-17T07:53:14;12.30;99.90
22491;DHT22;11412;50.802;4.350;2022-09-17T07:55:40;12.40;99.90
22491;DHT22;11412;50.802;4.350;2022-09-17T07:58:06;12.50;99.90
22491;DHT22;11412;50.802;4.350;2022-09-17T08:00:31;12.60;99.90
22491;DHT22;11412;50.802;4.350;2022-09-17T08:02:57;12.60;99.90
22491;DHT22;11412;50.802;4.350;2022-09-17T08:05:23;12.60;99.90
22491;DHT22;11412;50.802;4.350;2022-09-17T08:07:54;12.70;99.90
22491;DHT22;11412;50.802;4.350;2022-09-17T08:10:20;12.80;99.90
22491;DHT22;11412;50.802;4.350;2022-09-17T08:12:53;13.00;99.90
22491;DHT22;11412;50.802;4.350;2022-09-17T08:15:19;13.20;99.90
22491;DHT22;11412;50.802;4.350;2022-09-17T08:17:45;13.40;99.90
22491;DHT22;11412;50.802;4.350;2022-09-17T08:20:12;13.40;99.90
22491;DHT22;11412;50.802;4.350;2022-09-17T08:22:39;13.40;99.90
22491;DHT22;11412;50.802;4.350;2022-09-17T08:25:05;13.30;99.90
22491;DHT22;11412;50.802;4.350;2022-09-17T08:27:31;13.30;99.90
22491;DHT22;11412;50.802;4.350;2022-09-17T08:29:57;13.40;99.90
22491;DHT22;11412;50.802;4.350;2022-09-17T08:32:23;13.70;99.90
22491;DHT22;11412;50.802;4.350;2022-09-17T08:34:49;14.00;99.90
22491;DHT22;11412;50.802;4.350;2022-09-17T08:37:15;13.90;99.90
22491;DHT22;11412;50.802;4.350;2022-09-17T08:39:41;13.70;99.90
22491;DHT22;11412;50.802;4.350;2022-09-17T08:44:46;14.40;99.90
22491;DHT22;11412;50.802;4.350;2022-09-17T08:47:25;15.00;99.90
22491;DHT22;11412;50.802;4.350;2022-09-17T08:49:56;15.50;99.90
22491;DHT22;11412;50.802;4.350;2022-09-17T08:55:43;15.20;99.90
22491;DHT22;11412;50.802;4.350;2022-09-17T08:58:48;15.20;99.90
22491;DHT22;11412;50.802;4.350;2022-09-17T09:01:44;15.00;99.90
22491;DHT22;11412;50.802;4.350;2022-09-17T09:04:23;14.80;99.90
22491;DHT22;11412;50.802;4.350;2022-09-17T09:07:07;14.60;99.90
22491;DHT22;11412;50.802;4.350;2022-09-17T09:09:36;14.50;99.90
22491;DHT22;11412;50.802;4.350;2022-09-17T09:12:08;14.40;99.90
22491;DHT22;11412;50.802;4.350;2022-09-17T09:15:05;14.30;99.90
22491;DHT22;11412;50.802;4.350;2022-09-17T09:17:43;14.30;99.90
22491;DHT22;11412;50.802;4.350;2022-09-17T09:20:38;14.40;99.90
22491;DHT22;11412;50.802;4.350;2022-09-17T09:23:37;14.30;99.90
22491;DHT22;11412;50.802;4.350;2022-09-17T09:26:18;14.30;99.90
22491;DHT22;11412;50.802;4.350;2022-09-17T09:34:11;13.70;99.90
22491;DHT22;11412;50.802;4.350;2022-09-17T09:36:38;13.60;99.90
22491;DHT22;11412;50.802;4.350;2022-09-17T09:39:20;13.30;99.90
22491;DHT22;11412;50.802;4.350;2022-09-17T09:44:16;13.30;99.90
22491;DHT22;11412;50.802;4.350;2022-09-17T09:50:09;13.40;99.90
22491;DHT22;11412;50.802;4.350;2022-09-17T09:56:14;13.50;99.90
22491;DHT22;11412;50.802;4.350;2022-09-17T09:58:39;13.60;99.90
22491;DHT22;11412;50.802;4.350;2022-09-17T10:01:16;13.80;99.90
22491;DHT22;11412;50.802;4.350;2022-09-17T10:03:45;13.90;99.90
22491;DHT22;11412;50.802;4.350;2022-09-17T10:06:15;14.20;99.90
22491;DHT22;11412;50.802;4.350;2022-09-17T10:11:31;14.40;99.90
22491;DHT22;11412;50.802;4.350;2022-09-17T10:14:24;14.50;99.90
22491;DHT22;11412;50.802;4.350;2022-09-17T10:19:35;14.80;99.90
22491;DHT22;11412;50.802;4.350;2022-09-17T10:24:42;14.90;99.90
22491;DHT22;11412;50.802;4.350;2022-09-17T10:27:17;14.80;99.90
22491;DHT22;11412;50.802;4.350;2022-09-17T10:29:46;14.80;99.90
22491;DHT22;11412;50.802;4.350;2022-09-17T10:32:20;14.80;99.90
22491;DHT22;11412;50.802;4.350;2022-09-17T10:37:48;14.60;99.90
22491;DHT22;11412;50.802;4.350;2022-09-17T10:45:36;14.30;99.90
22491;DHT22;11412;50.802;4.350;2022-09-17T10:48:03;14.40;99.90
22491;DHT22;11412;50.802;4.350;2022-09-17T10:50:31;14.40;99.90
22491;DHT22;11412;50.802;4.350;2022-09-17T10:53:14;14.40;99.90
22491;DHT22;11412;50.802;4.350;2022-09-17T11:04:40;14.40;99.90
22491;DHT22;11412;50.802;4.350;2022-09-17T11:21:28;14.90;99.90
22491;DHT22;11412;50.802;4.350;2022-09-17T11:27:09;15.00;99.90
22491;DHT22;11412;50.802;4.350;2022-09-17T11:37:41;14.60;99.90
22491;DHT22;11412;50.802;4.350;2022-09-17T11:40:38;14.30;99.90
22491;DHT22;11412;50.802;4.350;2022-09-17T11:43:26;14.20;99.90
22491;DHT22;11412;50.802;4.350;2022-09-17T11:46:02;14.20;99.90
22491;DHT22;11412;50.802;4.350;2022-09-17T11:48:37;14.30;99.90
22491;DHT22;11412;50.802;4.350;2022-09-17T11:54:20;14.20;99.90
22491;DHT22;11412;50.802;4.350;2022-09-17T11:56:57;14.20;99.90
22491;DHT22;11412;50.802;4.350;2022-09-17T11:59:38;14.10;99.90
22491;DHT22;11412;50.802;4.350;2022-09-17T12:15:50;14.90;99.90
22491;DHT22;11412;50.802;4.350;2022-09-17T12:20:53;15.40;99.90
22491;DHT22;11412;50.802;4.350;2022-09-17T12:29:10;15.80;99.90
22491;DHT22;11412;50.802;4.350;2022-09-17T12:37:01;15.60;99.90
22491;DHT22;11412;50.802;4.350;2022-09-17T12:39:37;15.50;99.90
22491;DHT22;11412;50.802;4.350;2022-09-17T12:45:01;15.50;99.90
22491;DHT22;11412;50.802;4.350;2022-09-17T12:55:49;15.40;99.90
22491;DHT22;11412;50.802;4.350;2022-09-17T13:01:57;15.80;99.90
22491;DHT22;11412;50.802;4.350;2022-09-17T13:08:02;15.90;99.90
22491;DHT22;11412;50.802;4.350;2022-09-17T13:16:17;14.40;99.90
22491;DHT22;11412;50.802;4.350;2022-09-17T13:21:31;14.10;99.90
22491;DHT22;11412;50.802;4.350;2022-09-17T13:23:58;13.90;99.90
22491;DHT22;11412;50.802;4.350;2022-09-17T13:26:37;13.70;99.90
22491;DHT22;11412;50.802;4.350;2022-09-17T13:29:04;13.70;99.90
22491;DHT22;11412;50.802;4.350;2022-09-17T13:34:00;13.90;99.90
22491;DHT22;11412;50.802;4.350;2022-09-17T13:36:50;14.10;99.90
22491;DHT22;11412;50.802;4.350;2022-09-17T13:40:12;14.00;99.90
22491;DHT22;11412;50.802;4.350;2022-09-17T13:42:42;13.80;99.90
22491;DHT22;11412;50.802;4.350;2022-09-17T13:45:09;13.80;99.90
22491;DHT22;11412;50.802;4.350;2022-09-17T13:47:38;14.10;99.90
22491;DHT22;11412;50.802;4.350;2022-09-17T13:52:54;14.70;99.90
22491;DHT22;11412;50.802;4.350;2022-09-17T13:58:24;14.90;99.90
22491;DHT22;11412;50.802;4.350;2022-09-17T14:00:55;15.00;99.90
22491;DHT22;11412;50.802;4.350;2022-09-17T14:08:47;15.80;99.90
22491;DHT22;11412;50.802;4.350;2022-09-17T14:19:32;16.10;99.90
22491;DHT22;11412;50.802;4.350;2022-09-17T14:27:32;16.40;99.90
22491;DHT22;11412;50.802;4.350;2022-09-17T14:30:10;16.20;99.90
22491;DHT22;11412;50.802;4.350;2022-09-17T14:32:53;15.70;99.90
22491;DHT22;11412;50.802;4.350;2022-09-17T14:35:42;15.50;99.90
22491;DHT22;11412;50.802;4.350;2022-09-17T14:38:23;15.10;99.90
22491;DHT22;11412;50.802;4.350;2022-09-17T14:46:21;14.40;99.90
22491;DHT22;11412;50.802;4.350;2022-09-17T14:48:47;14.20;99.90
22491;DHT22;11412;50.802;4.350;2022-09-17T14:53:42;13.70;99.90
22491;DHT22;11412;50.802;4.350;2022-09-17T14:56:11;13.60;99.90
22491;DHT22;11412;50.802;4.350;2022-09-17T14:58:41;13.50;99.90
22491;DHT22;11412;50.802;4.350;2022-09-17T15:01:21;13.60;99.90
22491;DHT22;11412;50.802;4.350;2022-09-17T15:03:48;13.60;99.90
22491;DHT22;11412;50.802;4.350;2022-09-17T15:06:22;13.60;99.90
22491;DHT22;11412;50.802;4.350;2022-09-17T15:08:48;13.60;99.90
22491;DHT22;11412;50.802;4.350;2022-09-17T15:11:14;13.70;99.90
22491;DHT22;11412;50.802;4.350;2022-09-17T15:13:51;13.90;99.90
22491;DHT22;11412;50.802;4.350;2022-09-17T15:16:24;14.10;99.90
22491;DHT22;11412;50.802;4.350;2022-09-17T15:18:59;14.20;99.90
22491;DHT22;11412;50.802;4.350;2022-09-17T15:21:43;14.30;99.90
22491;DHT22;11412;50.802;4.350;2022-09-17T15:24:35;14.30;99.90
22491;DHT22;11412;50.802;4.350;2022-09-17T15:29:52;14.20;99.90
22491;DHT22;11412;50.802;4.350;2022-09-17T15:32:19;14.10;99.90
22491;DHT22;11412;50.802;4.350;2022-09-17T15:37:33;14.00;99.90
22491;DHT22;11412;50.802;4.350;2022-09-17T15:40:32;13.90;99.90
22491;DHT22;11412;50.802;4.350;2022-09-17T15:43:23;13.90;99.90
22491;DHT22;11412;50.802;4.350;2022-09-17T15:45:49;13.90;99.90
22491;DHT22;11412;50.802;4.350;2022-09-17T15:48:34;14.00;99.90
22491;DHT22;11412;50.802;4.350;2022-09-17T15:51:04;13.90;99.90
22491;DHT22;11412;50.802;4.350;2022-09-17T15:53:32;13.90;99.90
22491;DHT22;11412;50.802;4.350;2022-09-17T15:58:30;13.70;99.90
22491;DHT22;11412;50.802;4.350;2022-09-17T16:08:47;13.60;99.90
22491;DHT22;11412;50.802;4.350;2022-09-17T16:11:18;13.50;99.90
22491;DHT22;11412;50.802;4.350;2022-09-17T16:13:48;13.50;99.90
22491;DHT22;11412;50.802;4.350;2022-09-17T16:16:21;13.50;99.90
22491;DHT22;11412;50.802;4.350;2022-09-17T16:18:48;13.40;99.90
22491;DHT22;11412;50.802;4.350;2022-09-17T16:21:16;13.50;99.90
22491;DHT22;11412;50.802;4.350;2022-09-17T16:23:42;13.50;99.90
22491;DHT22;11412;50.802;4.350;2022-09-17T16:26:13;13.50;99.90
22491;DHT22;11412;50.802;4.350;2022-09-17T16:28:40;13.50;99.90
22491;DHT22;11412;50.802;4.350;2022-09-17T16:31:10;13.40;99.90
22491;DHT22;11412;50.802;4.350;2022-09-17T16:33:37;13.40;99.90
22491;DHT22;11412;50.802;4.350;2022-09-17T16:36:03;13.40;99.90
22491;DHT22;11412;50.802;4.350;2022-09-17T16:38:29;13.40;99.90
22491;DHT22;11412;50.802;4.350;2022-09-17T16:40:55;13.30;99.90
22491;DHT22;11412;50.802;4.350;2022-09-17T16:43:21;13.30;99.90
22491;DHT22;11412;50.802;4.350;2022-09-17T16:46:04;13.20;99.90
22491;DHT22;11412;50.802;4.350;2022-09-17T16:48:31;13.30;99.90
22491;DHT22;11412;50.802;4.350;2022-09-17T16:50:57;13.30;99.90
22491;DHT22;11412;50.802;4.350;2022-09-17T16:53:24;13.30;99.90
22491;DHT22;11412;50.802;4.350;2022-09-17T16:55:50;13.20;99.90
22491;DHT22;11412;50.802;4.350;2022-09-17T16:58:15;13.20;99.90
22491;DHT22;11412;50.802;4.350;2022-09-17T17:00:42;13.20;99.90
22491;DHT22;11412;50.802;4.350;2022-09-17T17:03:11;13.10;99.90
22491;DHT22;11412;50.802;4.350;2022-09-17T17:05:37;13.20;99.90
22491;DHT22;11412;50.802;4.350;2022-09-17T17:08:04;13.10;99.90
22491;DHT22;11412;50.802;4.350;2022-09-17T17:10:29;13.00;99.90
22491;DHT22;11412;50.802;4.350;2022-09-17T17:12:55;13.00;99.90
22491;DHT22;11412;50.802;4.350;2022-09-17T17:15:22;13.10;99.90
22491;DHT22;11412;50.802;4.350;2022-09-17T17:17:48;13.10;99.90
22491;DHT22;11412;50.802;4.350;2022-09-17T17:20:14;13.10;99.90
22491;DHT22;11412;50.802;4.350;2022-09-17T17:22:41;13.00;99.90
22491;DHT22;11412;50.802;4.350;2022-09-17T17:25:12;13.00;99.90
22491;DHT22;11412;50.802;4.350;2022-09-17T17:27:38;12.90;99.90
22491;DHT22;11412;50.802;4.350;2022-09-17T17:30:06;12.80;99.90
22491;DHT22;11412;50.802;4.350;2022-09-17T17:32:33;12.80;99.90
22491;DHT22;11412;50.802;4.350;2022-09-17T17:34:59;12.70;99.90
22491;DHT22;11412;50.802;4.350;2022-09-17T17:37:25;12.70;99.90
22491;DHT22;11412;50.802;4.350;2022-09-17T17:39:51;12.80;99.90
22491;DHT22;11412;50.802;4.350;2022-09-17T17:42:18;12.80;99.90
22491;DHT22;11412;50.802;4.350;2022-09-17T17:45:25;12.80;99.90
22491;DHT22;11412;50.802;4.350;2022-09-17T17:47:51;12.90;99.90
22491;DHT22;11412;50.802;4.350;2022-09-17T17:50:16;12.80;99.90
22491;DHT22;11412;50.802;4.350;2022-09-17T17:52:42;12.90;99.90
22491;DHT22;11412;50.802;4.350;2022-09-17T17:55:12;12.80;99.90
22491;DHT22;11412;50.802;4.350;2022-09-17T17:57:38;12.80;99.90
22491;DHT22;11412;50.802;4.350;2022-09-17T18:00:04;12.80;99.90
22491;DHT22;11412;50.802;4.350;2022-09-17T18:02:30;12.80;99.90
22491;DHT22;11412;50.802;4.350;2022-09-17T18:04:56;12.80;99.90
22491;DHT22;11412;50.802;4.350;2022-09-17T18:07:21;12.80;99.90
22491;DHT22;11412;50.802;4.350;2022-09-17T18:09:47;12.80;99.90
22491;DHT22;11412;50.802;4.350;2022-09-17T18:12:13;12.90;99.90
22491;DHT22;11412;50.802;4.350;2022-09-17T18:14:39;12.90;99.90
22491;DHT22;11412;50.802;4.350;2022-09-17T18:17:04;12.80;99.90
22491;DHT22;11412;50.802;4.350;2022-09-17T18:19:31;12.80;99.90
22491;DHT22;11412;50.802;4.350;2022-09-17T18:21:56;12.80;99.90
22491;DHT22;11412;50.802;4.350;2022-09-17T18:24:22;12.70;99.90
22491;DHT22;11412;50.802;4.350;2022-09-17T18:26:48;12.70;99.90
22491;DHT22;11412;50.802;4.350;2022-09-17T18:29:14;12.70;99.90
22491;DHT22;11412;50.802;4.350;2022-09-17T18:31:39;12.70;99.90
22491;DHT22;11412;50.802;4.350;2022-09-17T18:34:15;12.70;99.90
22491;DHT22;11412;50.802;4.350;2022-09-17T18:36:42;12.60;99.90
22491;DHT22;11412;50.802;4.350;2022-09-17T18:39:13;12.60;99.90
22491;DHT22;11412;50.802;4.350;2022-09-17T18:41:40;12.60;99.90
22491;DHT22;11412;50.802;4.350;2022-09-17T18:44:07;12.60;99.90
22491;DHT22;11412;50.802;4.350;2022-09-17T18:46:33;12.60;99.90
22491;DHT22;11412;50.802;4.350;2022-09-17T18:48:59;12.60;99.90
22491;DHT22;11412;50.802;4.350;2022-09-17T18:51:25;12.60;99.90
22491;DHT22;11412;50.802;4.350;2022-09-17T18:53:52;12.60;99.90
22491;DHT22;11412;50.802;4.350;2022-09-17T18:56:19;12.50;99.90
22491;DHT22;11412;50.802;4.350;2022-09-17T18:58:48;12.60;99.90
22491;DHT22;11412;50.802;4.350;2022-09-17T19:01:15;12.60;99.90
22491;DHT22;11412;50.802;4.350;2022-09-17T19:03:41;12.60;99.90
22491;DHT22;11412;50.802;4.350;2022-09-17T19:06:09;12.60;99.90
22491;DHT22;11412;50.802;4.350;2022-09-17T19:08:36;12.60;99.90
22491;DHT22;11412;50.802;4.350;2022-09-17T19:11:02;12.60;99.90
22491;DHT22;11412;50.802;4.350;2022-09-17T19:13:39;12.60;99.90
22491;DHT22;11412;50.802;4.350;2022-09-17T19:16:05;12.60;99.90
22491;DHT22;11412;50.802;4.350;2022-09-17T19:18:32;12.60;99.90
22491;DHT22;11412;50.802;4.350;2022-09-17T19:23:28;12.70;99.90
22491;DHT22;11412;50.802;4.350;2022-09-17T19:25:56;12.70;99.90
22491;DHT22;11412;50.802;4.350;2022-09-17T19:28:22;12.60;99.90
22491;DHT22;11412;50.802;4.350;2022-09-17T19:30:48;12.60;99.90
22491;DHT22;11412;50.802;4.350;2022-09-17T19:33:14;12.60;99.90
22491;DHT22;11412;50.802;4.350;2022-09-17T19:35:40;12.60;99.90